KOS weather

Sihanoukville International Airport
Sihanukville, Xrong Preah Sihanouk, Cambodia

Public forecast

Using degrees Celsius for public forecast. Weather courtesy of forecast.io.

METAR (pilot weather report)

Closest report is Phu Quoc International Airport, 32.4 nm (60.0 km) SE. Retrieved 2019/02/21 06:00 UTC (8 minutes ago):

VVPQ 210600Z 07009KT 050V120 9999 FEW017 31/21 Q1013 NOSIG

TAF (pilot weather forecast)

Retrieved 2019/02/21 06:00 UTC (8 minutes ago):

TAF VDSV 210500Z 2106/2124 19010KT 9999 SCT017 TEMPO 2107/2112 SCT015 FEW017CB